| time (UTC) | temp F | wind direction | speed knots | gust knots | rain 1hr in | rain 24hr in | rain mn in | humidity % | barometer mb |
| 20260506044556 | 52 | 0.0 | 0.0 | 0.00 | 0.02 | 0.02 | 88 | 1010.1 | |
| 20260506043057 | 54 | 0.0 | 0.0 | 0.00 | 0.02 | 0.02 | 85 | 1009.9 | |
| 20260506041553 | 55 | 0.0 | 1.7 | 0.00 | 0.02 | 0.02 | 83 | 1009.7 | |
| 20260506040054 | 56 | 0.0 | 1.7 | 0.00 | 0.02 | 0.02 | 82 | 1009.4 | |
| 20260506034610 | 57 | 0.0 | 0.9 | 0.00 | 0.02 | 0.02 | 79 | 1009.2 | |
| 20260506033051 | 59 | 0.9 | 1.7 | 0.00 | 0.02 | 0.02 | 77 | 1009.0 | |
| 20260506031553 | 62 | 0.0 | 0.9 | 0.00 | 0.02 | 0.02 | 74 | 1008.8 | |
| 20260506030051 | 65 | 0.0 | 0.0 | 0.00 | 0.02 | 0.02 | 69 | 1008.6 | |
| 20260506024553 | 67 | 0.9 | 2.6 | 0.00 | 0.03 | 0.02 | 65 | 1008.4 | |
| 20260506023056 | 67 | 0.9 | 2.6 | 0.00 | 0.03 | 0.02 | 68 | 1008.3 | |
| 20260506021548 | 69 | 1.7 | 3.5 | 0.00 | 0.03 | 0.02 | 62 | 1008.3 | |
| 20260506020048 | 70 | 2.6 | 4.3 | 0.00 | 0.03 | 0.02 | 61 | 1008.2 | |
| 20260506014547 | 71 | 1.7 | 5.2 | 0.00 | 0.03 | 0.02 | 59 | 1008.2 | |
| 20260506013055 | 74 | 0.9 | 6.1 | 0.01 | 0.03 | 0.02 | 54 | 1008.1 | |
| 20260506011546 | 75 | 2.6 | 7.0 | 0.01 | 0.03 | 0.02 | 51 | 1007.9 | |
| 20260506010055 | 76 | 2.6 | 7.0 | 0.01 | 0.03 | 0.02 | 51 | 1008.0 | |
| 20260506004544 | 77 | 3.5 | 7.8 | 0.01 | 0.03 | 0.02 | 47 | 1007.9 | |
| 20260506003044 | 77 | 3.5 | 7.0 | 0.00 | 0.02 | 0.01 | 47 | 1007.9 | |
| 20260506001550 | 78 | 3.5 | 7.8 | 0.00 | 0.02 | 0.01 | 44 | 1007.9 | |
| 20260506000043 | 78 | 2.6 | 7.0 | 0.00 | 0.02 | 0.01 | 42 | 1007.9 | |
| 20260505234542 | 78 | 4.3 | 6.1 | 0.00 | 0.02 | 0.01 | 41 | 1008.0 | |
| 20260505233047 | 79 | 2.6 | 5.2 | 0.00 | 0.02 | 0.01 | 47 | 1008.1 | |
| 20260505231541 | 78 | 2.6 | 7.0 | 0.00 | 0.02 | 0.01 | 44 | 1008.2 | |
| 20260505230051 | 78 | 3.5 | 7.0 | 0.00 | 0.02 | 0.01 | 44 | 1008.2 | |
| 20260505224543 | 78 | 3.5 | 7.0 | 0.00 | 0.02 | 0.01 | 42 | 1008.4 | |
| 20260505223039 | 78 | 3.5 | 7.0 | 0.00 | 0.02 | 0.01 | 45 | 1008.4 | |
| 20260505221537 | 78 | 4.3 | 8.7 | 0.00 | 0.02 | 0.01 | 45 | 1008.5 | |
| 20260505220034 | 77 | 2.6 | 7.8 | 0.00 | 0.02 | 0.01 | 44 | 1008.7 | |
| 20260505214534 | 77 | 3.5 | 7.8 | 0.00 | 0.02 | 0.01 | 45 | 1008.8 | |
| 20260505213031 | 76 | 0.9 | 7.8 | 0.00 | 0.02 | 0.01 | 45 | 1008.8 | |
| 20260505211529 | 76 | 0.9 | 7.8 | 0.00 | 0.02 | 0.01 | 44 | 1008.9 | |
| 20260505210028 | 76 | 1.7 | 5.2 | 0.00 | 0.02 | 0.01 | 44 | 1009.1 | |
| 20260505204524 | 75 | 1.7 | 5.2 | 0.00 | 0.02 | 0.01 | 51 | 1009.2 | |
| 20260505203030 | 74 | 3.5 | 7.0 | 0.00 | 0.02 | 0.01 | 48 | 1009.4 | |
| 20260505201520 | 74 | 2.6 | 6.1 | 0.00 | 0.02 | 0.01 | 49 | 1009.4 | |
| 20260505200019 | 73 | 0.0 | 5.2 | 0.00 | 0.02 | 0.01 | 50 | 1009.3 | |
| 20260505194516 | 73 | 1.7 | 5.2 | 0.00 | 0.02 | 0.01 | 52 | 1009.6 | |
| 20260505193014 | 72 | 1.7 | 6.1 | 0.00 | 0.02 | 0.01 | 55 | 1009.6 | |
| 20260505191511 | 71 | 2.6 | 5.2 | 0.00 | 0.02 | 0.01 | 58 | 1009.6 | |
| 20260505190019 | 71 | 0.9 | 5.2 | 0.01 | 0.02 | 0.01 | 59 | 1009.7 | |
| 20260505184507 | 70 | 2.6 | 5.2 | 0.01 | 0.02 | 0.01 | 60 | 1009.9 | |
| 20260505183004 | 69 | 0.0 | 4.3 | 0.01 | 0.02 | 0.01 | 61 | 1010.0 | |
| 20260505181502 | 69 | 0.9 | 5.2 | 0.01 | 0.02 | 0.01 | 59 | 1009.9 | |
| 20260505180059 | 67 | 3.5 | 7.0 | 0.00 | 0.01 | 0.00 | 59 | 1009.9 | |
| 20260505174558 | 67 | 2.6 | 7.0 | 0.00 | 0.01 | 0.00 | 61 | 1010.0 | |
| 20260505173059 | 67 | 0.0 | 4.3 | 0.00 | 0.01 | 0.00 | 64 | 1009.9 | |
| 20260505171559 | 65 | 2.6 | 6.1 | 0.00 | 0.01 | 0.00 | 68 | 1009.8 | |
| 20260505170048 | 64 | 2.6 | 7.0 | 0.00 | 0.01 | 0.00 | 69 | 1009.8 | |
| 20260505164545 | 63 | 2.6 | 6.1 | 0.00 | 0.01 | 0.00 | 70 | 1009.8 | |
| 20260505163044 | 63 | 1.7 | 6.1 | 0.00 | 0.01 | 0.00 | 70 | 1009.9 | |
| 20260505161546 | 62 | 1.7 | 4.3 | 0.00 | 0.01 | 0.00 | 73 | 1009.9 | |
| 20260505153032 | 60 | 1.7 | 3.5 | 0.00 | 0.01 | 0.00 | 74 | 1009.8 | |
| 20260505151535 | 59 | 1.7 | 2.6 | 0.00 | 0.01 | 0.00 | 76 | 1009.6 | |
| 20260505124510 | 43 | 0.0 | 0.9 | 0.00 | 0.01 | 0.00 | 92 | 1008.4 | |
| 20260505123009 | 43 | 0.0 | 1.7 | 0.00 | 0.01 | 0.00 | 93 | 1008.3 | |
| 20260505121506 | 43 | 0.0 | 0.9 | 0.00 | 0.01 | 0.00 | 92 | 1008.1 | |
| 20260505120011 | 44 | 0.0 | 0.9 | 0.00 | 0.01 | 0.00 | 92 | 1008.1 | |
| 20260505114502 | 45 | 0.0 | 0.9 | 0.00 | 0.01 | 0.00 | 92 | 1008.0 | |
| 20260505113100 | 45 | 0.0 | 0.9 | 0.00 | 0.01 | 0.00 | 92 | 1008.0 | |
| 20260505111558 | 45 | 0.0 | 0.0 | 0.00 | 0.01 | 0.00 | 91 | 1007.8 | |
| 20260505101552 | 48 | 0.0 | 0.9 | 0.00 | 0.01 | 0.00 | 91 | 1007.3 | |
| 20260505100047 | 47 | 0.0 | 0.9 | 0.00 | 0.01 | 0.00 | 90 | 1007.3 | |
| 20260505094544 | 48 | 0.0 | 1.7 | 0.00 | 0.01 | 0.00 | 90 | 1007.2 | |
| 20260505093043 | 47 | 0.0 | 0.0 | 0.00 | 0.01 | 0.00 | 89 | 1007.2 | |
| 20260505091539 | 49 | 0.0 | 1.7 | 0.00 | 0.01 | 0.00 | 89 | 1007.1 | |
| 20260505090044 | 48 | 0.0 | 0.9 | 0.00 | 0.01 | 0.00 | 89 | 1007.0 | |
| 20260505084536 | 49 | 0.0 | 0.0 | 0.00 | 0.01 | 0.00 | 89 | 1006.9 | |
| 20260505083034 | 49 | 0.0 | 2.6 | 0.00 | 0.01 | 0.00 | 87 | 1006.9 | |
| 20260505081539 | 50 | 0.0 | 0.0 | 0.00 | 0.01 | 0.00 | 88 | 1006.9 | |
| 20260505080036 | 50 | 0.0 | 0.9 | 0.00 | 0.01 | 0.00 | 85 | 1006.9 | |
| 20260505074525 | 52 | 0.0 | 1.7 | 0.00 | 0.01 | 0.00 | 84 | 1006.9 | |
| 20260505073042 | 52 | 0.9 | 1.7 | 0.00 | 0.01 | 0.00 | 84 | 1006.7 | |
| 20260505071520 | 54 | 0.0 | 0.0 | 0.00 | 0.01 | 0.00 | 80 | 1006.6 | |
| 20260505070021 | 54 | 0.0 | 1.7 | 0.00 | 0.01 | 0.00 | 78 | 1006.4 | |
| 20260505064533 | 56 | 0.0 | 0.0 | 0.00 | 0.01 | 0.01 | 77 | 1006.3 | |
| 20260505063016 | 56 | 0.0 | 0.0 | 0.00 | 0.01 | 0.01 | 75 | 1006.3 | |
| 20260505061528 | 58 | 0.0 | 0.0 | 0.00 | 0.01 | 0.01 | 71 | 1006.4 | |
| 20260505060014 | 57 | 0.0 | 2.6 | 0.00 | 0.01 | 0.01 | 71 | 1006.4 | |
| 20260505054514 | 56 | 0.0 | 2.6 | 0.00 | 0.01 | 0.01 | 72 | 1006.2 | |
| 20260505053013 | 59 | 0.0 | 2.6 | 0.00 | 0.01 | 0.01 | 65 | 1006.1 |